createdAt,value
2019-04-06T00:01:41.372Z,29.65
2019-04-06T00:04:14.370Z,27.17
2019-04-06T00:06:47.298Z,27.52
2019-04-06T00:09:21.149Z,26.23
2019-04-06T00:11:54.159Z,25.95
2019-04-06T00:14:27.008Z,25.60
2019-04-06T00:16:59.874Z,26.33
2019-04-06T00:19:33.999Z,27.55
2019-04-06T00:22:06.922Z,26.00
2019-04-06T00:24:39.859Z,27.10
2019-04-06T00:27:12.806Z,25.23
2019-04-06T00:29:45.694Z,27.35
2019-04-06T00:32:29.055Z,25.62
2019-04-06T00:35:02.325Z,24.45
2019-04-06T00:37:36.295Z,25.27
2019-04-06T00:40:09.281Z,27.48
2019-04-06T00:42:42.158Z,26.27
2019-04-06T00:45:15.138Z,28.10
2019-04-06T00:47:48.088Z,26.02
2019-04-06T00:50:20.857Z,25.43
2019-04-06T00:52:53.798Z,25.40
2019-04-06T00:55:26.766Z,24.72
2019-04-06T00:57:59.654Z,24.52
2019-04-06T01:00:32.691Z,26.50
2019-04-06T01:03:05.804Z,24.00
2019-04-06T01:05:38.715Z,25.40
2019-04-06T01:08:12.766Z,26.17
2019-04-06T01:10:45.619Z,24.72
2019-04-06T01:13:18.495Z,24.52
2019-04-06T01:15:51.502Z,25.27
2019-04-06T01:18:24.579Z,22.82
2019-04-06T01:20:57.406Z,22.07
2019-04-06T01:23:31.360Z,20.27
2019-04-06T01:26:07.602Z,21.30
2019-04-06T01:28:39.059Z,22.30
2019-04-06T01:31:11.952Z,20.72
2019-04-06T01:33:44.870Z,23.65
2019-04-06T01:36:17.799Z,23.38
2019-04-06T01:38:50.818Z,22.00
2019-04-06T01:41:23.845Z,21.80
2019-04-06T01:43:56.799Z,22.22
2019-04-06T01:46:29.776Z,23.40
2019-04-06T01:49:02.755Z,23.10
2019-04-06T01:51:35.900Z,22.82
2019-04-06T01:54:08.951Z,21.97
2019-04-06T01:56:41.839Z,22.37
2019-04-06T01:59:14.764Z,23.67
2019-04-06T02:02:06.666Z,24.50
2019-04-06T02:04:39.737Z,23.22
2019-04-06T02:07:12.613Z,23.35
2019-04-06T02:09:45.701Z,24.43
2019-04-06T02:12:19.246Z,22.70
2019-04-06T02:14:52.790Z,24.20
2019-04-06T02:17:25.750Z,23.30
2019-04-06T02:19:58.871Z,23.32
2019-04-06T02:22:32.131Z,22.75
2019-04-06T02:25:05.049Z,22.45
2019-04-06T02:27:38.122Z,23.32
2019-04-06T02:30:39.082Z,22.85
2019-04-06T02:33:27.837Z,23.35
2019-04-06T02:36:23.886Z,22.80
2019-04-06T02:39:14.479Z,24.05
2019-04-06T02:41:50.884Z,24.65
2019-04-06T02:44:23.888Z,24.55
2019-04-06T02:46:57.070Z,24.90
2019-04-06T02:49:30.096Z,25.17
2019-04-06T02:52:03.048Z,26.33
2019-04-06T02:54:36.047Z,24.10
2019-04-06T02:57:09.187Z,26.57
2019-04-06T02:59:42.305Z,23.12
2019-04-06T03:02:15.583Z,22.35
2019-04-06T03:04:48.945Z,21.90
2019-04-06T03:07:22.010Z,23.67
2019-04-06T03:09:55.248Z,23.73
2019-04-06T03:12:29.985Z,26.37
2019-04-06T03:15:04.026Z,27.77
2019-04-06T03:17:37.094Z,31.07
2019-04-06T03:20:10.174Z,31.65
2019-04-06T03:22:43.619Z,30.80
2019-04-06T03:25:16.755Z,28.47
2019-04-06T03:27:50.013Z,26.12
2019-04-06T03:30:23.175Z,23.70
2019-04-06T03:32:56.344Z,24.12
2019-04-06T03:35:29.744Z,22.48
2019-04-06T03:38:03.275Z,23.12
2019-04-06T03:40:36.473Z,23.12
2019-04-06T03:43:09.502Z,21.80
2019-04-06T03:45:42.719Z,23.07
2019-04-06T03:48:15.945Z,22.58
2019-04-06T03:50:48.974Z,24.10
2019-04-06T03:53:21.936Z,22.45
2019-04-06T03:55:54.961Z,23.95
2019-04-06T03:58:29.375Z,23.70
2019-04-06T04:01:02.548Z,21.97
2019-04-06T04:03:35.859Z,23.18
2019-04-06T04:06:10.106Z,23.62
2019-04-06T04:08:43.209Z,23.42
2019-04-06T04:11:16.295Z,21.87
2019-04-06T04:13:49.303Z,22.05
2019-04-06T04:16:22.275Z,22.40
2019-04-06T04:18:55.299Z,21.50
2019-04-06T04:21:28.390Z,22.73
2019-04-06T04:24:01.589Z,22.15
2019-04-06T04:26:34.667Z,20.27
2019-04-06T04:29:08.052Z,22.65
2019-04-06T04:31:41.223Z,22.50
2019-04-06T04:34:14.328Z,23.55
2019-04-06T04:36:47.369Z,21.68
2019-04-06T04:39:20.409Z,22.13
2019-04-06T04:41:53.414Z,20.97
2019-04-06T04:44:26.410Z,21.97
2019-04-06T04:46:59.470Z,23.38
2019-04-06T04:49:33.698Z,21.20
2019-04-06T04:52:06.755Z,21.25
2019-04-06T04:54:39.728Z,22.52
2019-04-06T04:57:12.816Z,21.35
2019-04-06T04:59:45.870Z,19.77
2019-04-06T05:02:18.855Z,21.68
2019-04-06T05:04:51.917Z,22.07
2019-04-06T05:07:25.047Z,23.15
2019-04-06T05:09:58.027Z,22.13
2019-04-06T05:12:30.907Z,22.40
2019-04-06T05:15:10.479Z,21.77
2019-04-06T05:17:43.520Z,21.77
2019-04-06T05:20:16.516Z,23.20
2019-04-06T05:22:49.590Z,23.07
2019-04-06T05:25:23.027Z,23.73
2019-04-06T05:27:57.414Z,25.00
2019-04-06T05:30:30.597Z,24.67
2019-04-06T05:33:03.662Z,24.20
2019-04-06T05:35:37.241Z,22.07
2019-04-06T05:38:10.258Z,22.13
2019-04-06T05:40:43.374Z,21.70
2019-04-06T05:43:16.440Z,24.07
2019-04-06T05:45:49.559Z,21.60
2019-04-06T05:48:22.773Z,21.65
2019-04-06T05:50:57.089Z,20.77
2019-04-06T05:53:30.271Z,22.77
2019-04-06T05:56:03.293Z,23.50
2019-04-06T05:58:40.288Z,21.48
2019-04-06T06:01:11.385Z,23.35
2019-04-06T06:03:45.625Z,22.55
2019-04-06T06:06:18.561Z,21.60
2019-04-06T06:08:51.565Z,22.52
2019-04-06T06:11:24.428Z,22.98
2019-04-06T06:13:57.249Z,21.65
2019-04-06T06:16:30.396Z,22.80
2019-04-06T06:19:03.356Z,20.55
2019-04-06T06:21:36.469Z,21.12
2019-04-06T06:24:09.409Z,20.90
2019-04-06T06:26:42.368Z,22.22
2019-04-06T06:29:15.424Z,21.25
2019-04-06T06:31:48.504Z,21.90
2019-04-06T06:34:21.559Z,19.90
2019-04-06T06:36:54.793Z,21.07
2019-04-06T06:39:27.910Z,20.30
2019-04-06T06:42:00.962Z,19.80
2019-04-06T06:44:34.679Z,20.45
2019-04-06T06:47:07.851Z,19.52
2019-04-06T06:49:41.042Z,20.50
2019-04-06T06:52:15.288Z,21.62
2019-04-06T06:54:48.539Z,21.45
2019-04-06T06:57:21.747Z,21.15
2019-04-06T06:59:54.862Z,22.22
2019-04-06T07:02:27.899Z,22.05
2019-04-06T07:05:03.245Z,21.37
2019-04-06T07:10:59.822Z,19.87
2019-04-06T07:13:34.267Z,21.02
2019-04-06T07:16:07.262Z,20.92
2019-04-06T07:18:40.255Z,21.02
2019-04-06T07:21:13.219Z,20.95
2019-04-06T07:23:46.221Z,21.37
2019-04-06T07:26:19.177Z,20.45
2019-04-06T07:28:52.092Z,20.08
2019-04-06T07:31:25.306Z,20.15
2019-04-06T07:33:58.244Z,20.20
2019-04-06T07:36:31.221Z,20.05
2019-04-06T07:39:05.948Z,19.95
2019-04-06T07:41:38.801Z,20.15
2019-04-06T07:44:11.836Z,20.45
2019-04-06T07:46:44.781Z,18.75
2019-04-06T07:49:17.644Z,18.87
2019-04-06T07:51:50.656Z,20.65
2019-04-06T07:54:23.804Z,19.23
2019-04-06T07:56:56.749Z,19.48
2019-04-06T07:59:29.680Z,19.52
2019-04-06T08:02:03.524Z,18.48
2019-04-06T08:04:38.003Z,19.10
2019-04-06T08:07:11.024Z,17.57
2019-04-06T08:09:43.898Z,20.55
2019-04-06T08:12:16.749Z,17.50
2019-04-06T08:14:49.675Z,19.60
2019-04-06T08:17:23.729Z,19.92
2019-04-06T08:19:56.639Z,17.87
2019-04-06T08:22:29.524Z,17.17
2019-04-06T08:25:02.592Z,18.90
2019-04-06T08:27:36.661Z,16.93
2019-04-06T08:30:10.465Z,17.62
2019-04-06T08:32:43.424Z,17.95
2019-04-06T08:35:25.216Z,18.57
2019-04-06T08:37:51.072Z,17.10
2019-04-06T08:40:25.846Z,16.82
2019-04-06T08:42:58.780Z,16.10
2019-04-06T08:45:31.948Z,17.20
2019-04-06T08:48:04.855Z,15.95
2019-04-06T08:50:37.728Z,17.37
2019-04-06T08:53:11.071Z,14.85
2019-04-06T08:55:45.902Z,28.80
2019-04-06T08:58:18.831Z,18.60
2019-04-06T09:00:51.861Z,15.60
2019-04-06T09:03:25.205Z,16.55
2019-04-06T09:05:58.824Z,16.42
2019-04-06T09:08:32.120Z,15.15
2019-04-06T09:11:06.353Z,15.28
2019-04-06T09:13:40.430Z,15.63
2019-04-06T09:16:13.948Z,14.63
2019-04-06T09:18:49.241Z,14.85
2019-04-06T09:21:22.952Z,14.68
2019-04-06T09:23:58.649Z,16.15
2019-04-06T09:26:31.180Z,15.13
2019-04-06T09:29:04.413Z,14.28
2019-04-06T09:31:37.483Z,14.65
2019-04-06T09:34:10.586Z,14.10
2019-04-06T09:36:43.630Z,13.95
2019-04-06T09:39:16.731Z,14.98
2019-04-06T09:41:49.801Z,13.65
2019-04-06T09:44:36.423Z,13.68
2019-04-06T09:47:20.541Z,15.10
2019-04-06T09:50:28.842Z,16.50
2019-04-06T09:53:20.897Z,14.28
2019-04-06T09:56:16.020Z,14.90
2019-04-06T09:59:20.384Z,13.45
2019-04-06T10:02:15.808Z,12.70
2019-04-06T10:05:10.716Z,13.18
2019-04-06T10:08:08.826Z,13.25
2019-04-06T10:10:59.231Z,14.33
2019-04-06T10:13:50.355Z,12.10
2019-04-06T10:16:54.336Z,15.83
2019-04-06T10:19:43.940Z,13.93
2019-04-06T10:22:35.117Z,13.75
2019-04-06T10:25:27.196Z,13.50
2019-04-06T10:28:28.109Z,12.47
2019-04-06T10:31:22.689Z,14.07
2019-04-06T10:34:17.480Z,13.32
2019-04-06T10:37:08.170Z,16.07
2019-04-06T10:39:45.633Z,14.87
2019-04-06T10:42:56.070Z,12.73
2019-04-06T10:45:57.175Z,13.68
2019-04-06T10:48:38.025Z,13.85
2019-04-06T10:51:32.854Z,13.43
2019-04-06T10:54:27.817Z,12.33
2019-04-06T10:57:19.959Z,13.08
2019-04-06T11:00:11.838Z,13.22
2019-04-06T11:03:02.256Z,13.88
2019-04-06T11:05:42.947Z,11.55
2019-04-06T11:08:37.666Z,13.43
2019-04-06T11:11:38.457Z,13.30
2019-04-06T11:14:31.297Z,14.95
2019-04-06T11:17:16.394Z,14.83
2019-04-06T11:19:57.362Z,13.58
2019-04-06T11:23:07.447Z,12.35
2019-04-06T11:25:49.110Z,13.60
2019-04-06T11:28:56.331Z,13.22
2019-04-06T11:31:46.894Z,12.70
2019-04-06T11:34:47.962Z,12.90
2019-04-06T11:37:39.969Z,12.58
2019-04-06T11:40:37.032Z,11.48
2019-04-06T11:43:25.037Z,12.85
2019-04-06T11:46:32.351Z,13.28
2019-04-06T11:49:24.085Z,12.90
2019-04-06T11:52:14.769Z,10.88
2019-04-06T11:55:16.129Z,12.63
2019-04-06T11:58:23.555Z,11.75
2019-04-06T12:01:03.727Z,11.28
2019-04-06T12:03:55.750Z,11.57
2019-04-06T12:07:03.806Z,12.13
2019-04-06T12:09:54.862Z,12.70
2019-04-06T12:12:45.612Z,12.43
2019-04-06T12:15:43.564Z,12.95
2019-04-06T12:18:43.801Z,11.38
2019-04-06T12:21:35.644Z,11.40
2019-04-06T12:24:30.512Z,11.03
2019-04-06T12:27:31.718Z,11.28
2019-04-06T12:30:36.691Z,12.55
2019-04-06T12:33:19.079Z,10.82
2019-04-06T12:36:29.299Z,9.83
2019-04-06T12:39:30.430Z,11.60
2019-04-06T12:42:34.507Z,11.75
2019-04-06T12:45:25.256Z,10.58
2019-04-06T12:48:35.662Z,9.98
2019-04-06T12:51:34.927Z,11.48
2019-04-06T12:54:40.860Z,11.60
2019-04-06T12:57:38.302Z,11.05
2019-04-06T13:00:48.389Z,11.53
2019-04-06T13:03:18.811Z,11.88
2019-04-06T13:06:17.238Z,9.53
2019-04-06T13:09:12.327Z,9.73
2019-04-06T13:11:57.513Z,10.45
2019-04-06T13:14:46.559Z,11.30
2019-04-06T13:17:41.695Z,11.08
2019-04-06T13:20:44.197Z,12.43
2019-04-06T13:23:51.399Z,10.43
2019-04-06T13:26:43.946Z,11.20
2019-04-06T13:29:39.950Z,11.90
2019-04-06T13:32:30.326Z,9.98
2019-04-06T13:35:12.682Z,11.73
2019-04-06T13:38:07.631Z,10.72
2019-04-06T13:40:55.405Z,10.32
2019-04-06T13:43:47.279Z,11.90
2019-04-06T13:46:57.983Z,11.48
2019-04-06T13:49:51.835Z,11.88
2019-04-06T13:52:44.223Z,11.30
2019-04-06T13:55:35.101Z,11.22
2019-04-06T13:58:30.507Z,11.97
2019-04-06T14:01:16.093Z,16.07
2019-04-06T14:04:09.006Z,31.82
2019-04-06T14:07:04.517Z,12.15
2019-04-06T14:09:55.065Z,11.57
2019-04-06T14:13:04.962Z,12.28
2019-04-06T14:16:09.392Z,13.15
2019-04-06T14:19:19.636Z,12.07
2019-04-06T14:22:03.015Z,12.60
2019-04-06T14:24:46.665Z,11.53
2019-04-06T14:27:42.658Z,12.03
2019-04-06T14:30:32.276Z,12.15
2019-04-06T14:33:24.287Z,13.78
2019-04-06T14:36:25.441Z,13.43
2019-04-06T14:39:17.458Z,11.53
2019-04-06T14:42:12.269Z,11.53
2019-04-06T14:45:10.167Z,11.35
2019-04-06T14:47:52.366Z,11.75
2019-04-06T14:50:55.086Z,11.65
2019-04-06T14:58:26.369Z,11.80
2019-04-06T15:01:22.037Z,12.98
2019-04-06T15:04:11.813Z,12.50
2019-04-06T15:06:50.870Z,11.83
2019-04-06T15:09:42.513Z,13.78
2019-04-06T15:12:52.540Z,12.30
2019-04-06T15:15:43.181Z,12.23
2019-04-06T15:18:40.930Z,13.05
2019-04-06T15:21:32.796Z,12.43
2019-04-06T15:24:21.526Z,12.37
2019-04-06T15:27:04.947Z,12.30
2019-04-06T15:29:59.898Z,12.30
2019-04-06T15:32:57.689Z,15.95
2019-04-06T15:35:52.331Z,15.00
2019-04-06T15:38:34.802Z,11.70
2019-04-06T15:41:26.881Z,15.03
2019-04-06T15:44:24.761Z,17.40
2019-04-06T15:47:09.320Z,14.93
2019-04-06T15:50:16.491Z,15.32
2019-04-06T15:53:18.417Z,13.03
2019-04-06T15:56:17.018Z,24.37
2019-04-06T15:59:15.027Z,23.57
2019-04-06T16:02:02.567Z,17.40
2019-04-06T16:04:56.955Z,16.48
2019-04-06T16:08:03.982Z,18.42
2019-04-06T16:11:08.129Z,14.68
2019-04-06T16:13:53.479Z,15.32
2019-04-06T16:16:45.373Z,18.85
2019-04-06T16:19:25.649Z,15.35
2019-04-06T16:22:27.833Z,13.22
2019-04-06T16:25:11.078Z,13.50
2019-04-06T16:28:03.447Z,14.40
2019-04-06T16:30:55.424Z,14.65
2019-04-06T16:33:34.523Z,13.58
2019-04-06T16:36:27.011Z,14.43
2019-04-06T16:39:20.917Z,14.38
2019-04-06T16:42:09.902Z,18.00
2019-04-06T16:45:10.585Z,18.02
2019-04-06T16:47:49.751Z,16.85
2019-04-06T16:50:58.769Z,16.10
2019-04-06T16:54:02.296Z,16.07
2019-04-06T16:56:44.165Z,21.20
2019-04-06T16:59:36.490Z,16.65
2019-04-06T17:02:27.421Z,17.07
2019-04-06T17:05:22.338Z,14.90
2019-04-06T17:08:19.046Z,14.53
2019-04-06T17:11:00.860Z,13.38
2019-04-06T17:14:04.604Z,14.10
2019-04-06T17:16:59.833Z,13.35
2019-04-06T17:20:00.842Z,14.05
2019-04-06T17:22:53.086Z,14.10
2019-04-06T17:25:40.755Z,13.90
2019-04-06T17:28:33.203Z,14.38
2019-04-06T17:31:27.123Z,71.07
2019-04-06T17:34:19.263Z,55.12
2019-04-06T17:37:13.956Z,69.35
2019-04-06T17:40:08.742Z,22.77
2019-04-06T17:42:54.960Z,28.23
2019-04-06T17:45:53.625Z,25.43
2019-04-06T17:48:54.496Z,19.37
2019-04-06T17:51:37.297Z,33.55
2019-04-06T17:54:32.060Z,26.35
2019-04-06T17:57:19.165Z,29.55
2019-04-06T18:00:17.358Z,75.08
2019-04-06T18:03:16.308Z,85.42
2019-04-06T18:06:11.357Z,79.50
2019-04-06T18:08:52.409Z,48.95
2019-04-06T18:11:34.090Z,47.85
2019-04-06T18:14:07.148Z,56.28
2019-04-06T18:16:40.723Z,56.50
2019-04-06T18:19:13.808Z,50.55
2019-04-06T18:21:55.578Z,44.40
2019-04-06T18:24:28.633Z,39.70
2019-04-06T18:27:02.130Z,33.58
2019-04-06T18:29:35.317Z,33.48
2019-04-06T18:32:36.421Z,28.62
2019-04-06T18:35:10.874Z,26.07
2019-04-06T18:38:05.770Z,31.80
2019-04-06T18:40:39.160Z,33.35
2019-04-06T18:43:12.329Z,44.23
2019-04-06T18:45:45.516Z,47.88
2019-04-06T18:48:19.166Z,92.42
2019-04-06T18:50:52.400Z,110.80
2019-04-06T18:53:25.604Z,291.82
2019-04-06T18:55:59.233Z,304.02
2019-04-06T18:58:33.262Z,152.27
2019-04-06T19:01:10.037Z,49.90
2019-04-06T19:03:44.267Z,40.88
2019-04-06T19:06:17.872Z,35.13
2019-04-06T19:08:51.253Z,26.12
2019-04-06T19:11:25.750Z,23.70
2019-04-06T19:14:00.271Z,17.87
2019-04-06T19:16:33.370Z,18.82
2019-04-06T19:19:06.446Z,20.57
2019-04-06T19:21:39.911Z,21.80
2019-04-06T19:24:13.800Z,24.05
2019-04-06T19:26:48.067Z,26.50
2019-04-06T19:29:21.618Z,38.98
2019-04-06T19:31:57.299Z,36.55
2019-04-06T19:34:29.894Z,84.58
2019-04-06T19:37:03.601Z,61.92
2019-04-06T19:39:38.589Z,49.60
2019-04-06T19:42:11.969Z,40.52
2019-04-06T19:44:45.201Z,48.63
2019-04-06T19:47:18.526Z,36.70
2019-04-06T19:49:51.733Z,32.42
2019-04-06T19:52:25.586Z,26.65
2019-04-06T19:55:02.532Z,31.37
2019-04-06T19:57:36.894Z,77.95
2019-04-06T20:00:11.406Z,48.90
2019-04-06T20:02:44.730Z,43.40
2019-04-06T20:05:19.643Z,45.35
2019-04-06T20:07:52.913Z,60.83
2019-04-06T20:10:35.273Z,52.35
2019-04-06T20:13:11.238Z,54.67
2019-04-06T20:15:44.555Z,50.58
2019-04-06T20:18:18.097Z,44.33
2019-04-06T20:20:58.672Z,57.25
2019-04-06T20:23:32.302Z,57.35
2019-04-06T20:26:05.765Z,57.43
2019-04-06T20:28:40.028Z,54.85
2019-04-06T20:31:13.626Z,52.58
2019-04-06T20:33:51.393Z,43.60
2019-04-06T20:36:21.492Z,33.13
2019-04-06T20:38:54.924Z,33.05
2019-04-06T20:41:28.073Z,28.42
2019-04-06T20:44:01.130Z,32.53
2019-04-06T20:46:36.651Z,37.65
2019-04-06T20:49:10.867Z,37.63
2019-04-06T20:51:44.460Z,28.85
2019-04-06T20:54:18.000Z,24.82
2019-04-06T20:56:56.451Z,26.17
2019-04-06T20:59:25.942Z,30.20
2019-04-06T21:01:59.122Z,32.78
2019-04-06T21:04:32.908Z,32.58
2019-04-06T21:07:06.008Z,32.20
2019-04-06T21:09:39.734Z,31.75
2019-04-06T21:12:12.813Z,31.15
2019-04-06T21:14:45.934Z,44.30
2019-04-06T21:17:19.628Z,61.68
2019-04-06T21:19:53.375Z,64.92
2019-04-06T21:22:27.282Z,47.90
2019-04-06T21:25:01.007Z,42.65
2019-04-06T21:27:35.097Z,38.70
2019-04-06T21:30:09.237Z,47.95
2019-04-06T21:32:42.528Z,42.62
2019-04-06T21:35:16.352Z,48.48
2019-04-06T21:37:49.571Z,44.88
2019-04-06T21:40:23.915Z,39.53
2019-04-06T21:42:57.006Z,39.92
2019-04-06T21:45:30.152Z,39.78
2019-04-06T21:48:04.154Z,30.12
2019-04-06T21:50:37.395Z,28.00
2019-04-06T21:53:10.658Z,31.27
2019-04-06T21:55:43.737Z,25.48
2019-04-06T21:58:16.876Z,35.92
2019-04-06T22:00:52.412Z,55.50
2019-04-06T22:03:25.928Z,29.20
2019-04-06T22:05:59.250Z,32.70
2019-04-06T22:08:33.983Z,30.52
2019-04-06T22:11:08.155Z,39.85
2019-04-06T22:13:41.813Z,41.25
2019-04-06T22:16:16.686Z,39.08
2019-04-06T22:18:50.009Z,46.65
2019-04-06T22:21:23.023Z,36.15
2019-04-06T22:23:56.078Z,30.68
2019-04-06T22:26:29.198Z,26.60
2019-04-06T22:29:02.719Z,32.70
2019-04-06T22:31:35.906Z,46.25
2019-04-06T22:34:09.293Z,61.75
2019-04-06T22:36:42.465Z,52.25
2019-04-06T22:39:15.749Z,59.15
2019-04-06T22:41:49.095Z,48.05
2019-04-06T22:44:22.256Z,40.48
2019-04-06T22:46:55.589Z,37.23
2019-04-06T22:49:29.384Z,40.70
2019-04-06T22:52:02.371Z,28.15
2019-04-06T22:54:35.609Z,24.10
2019-04-06T22:57:09.068Z,23.70
2019-04-06T22:59:42.480Z,25.52
2019-04-06T23:02:16.733Z,39.13
2019-04-06T23:05:08.843Z,58.48
2019-04-06T23:07:41.948Z,36.63
2019-04-06T23:10:15.810Z,34.50
2019-04-06T23:12:49.669Z,39.20
2019-04-06T23:15:23.290Z,38.00
2019-04-06T23:17:56.630Z,37.98
2019-04-06T23:20:29.914Z,32.88
2019-04-06T23:23:03.612Z,29.37
2019-04-06T23:25:37.860Z,25.72
2019-04-06T23:28:11.551Z,25.32
2019-04-06T23:30:45.249Z,22.45
2019-04-06T23:33:18.653Z,23.70
2019-04-06T23:35:51.763Z,23.85
2019-04-06T23:38:25.084Z,22.13
2019-04-06T23:40:58.324Z,24.05
2019-04-06T23:43:32.157Z,26.15
2019-04-06T23:46:05.474Z,21.65
2019-04-06T23:48:39.122Z,21.12
2019-04-06T23:51:12.338Z,21.85
2019-04-06T23:53:45.519Z,21.80
2019-04-06T23:56:18.795Z,29.05
2019-04-06T23:58:52.355Z,25.00
